Time;durP1;ratioP1;P1;durP2;ratioP2;P2;SDS_P1;SDS_P2;PMS_P1;PMS_P2;Temp;Humidity;BMP_temperature;BMP_pressure;BME280_temperature;BME280_humidity;BME280_pressure;Samples;Min_cycle;Max_cycle;Signal;HPM_P1;HPM_P2
2021/06/15 00:01:20;;;;;;;3.30;1.60;;;;;;;10.12;72.45;93898.72;5113262;28;20050;-76
2021/06/15 00:03:45;;;;;;;5.47;1.60;;;;;;;10.11;72.75;93903.25;5112780;28;20102;-76
2021/06/15 00:06:11;;;;;;;2.95;1.70;;;;;;;10.09;72.86;93901.97;5106233;27;20021;-76
2021/06/15 00:08:36;;;;;;;6.78;1.40;;;;;;;10.06;73.44;93907.94;5102839;28;20501;-76
2021/06/15 00:11:02;;;;;;;4.15;1.83;;;;;;;9.96;73.54;93898.34;5111667;28;20035;-76
2021/06/15 00:13:28;;;;;;;2.92;1.67;;;;;;;9.89;74.06;93892.66;5110714;28;20036;-77
2021/06/15 00:15:53;;;;;;;4.72;1.60;;;;;;;9.90;73.79;93894.25;5095507;28;20024;-78
2021/06/15 00:18:20;;;;;;;3.47;1.52;;;;;;;9.86;73.99;93893.28;5091291;28;20024;-78
2021/06/15 00:20:46;;;;;;;3.97;1.63;;;;;;;9.73;74.09;93893.09;5100606;28;20379;-77
2021/06/15 00:23:12;;;;;;;5.80;1.52;;;;;;;9.64;73.90;93889.59;5104197;28;20041;-78
2021/06/15 00:25:38;;;;;;;6.82;1.95;;;;;;;9.62;73.81;93892.53;5102989;28;20020;-78
2021/06/15 00:28:04;;;;;;;4.10;1.85;;;;;;;9.62;73.68;93886.44;5112656;28;20114;-77
2021/06/15 00:30:29;;;;;;;3.38;1.65;;;;;;;9.68;73.02;93895.88;5108652;28;20300;-78
2021/06/15 00:32:55;;;;;;;4.45;1.60;;;;;;;9.63;73.29;93882.69;5087145;28;20147;-78
2021/06/15 00:35:21;;;;;;;7.53;1.65;;;;;;;9.60;73.16;93889.41;5092291;28;20451;-78
2021/06/15 00:37:48;;;;;;;4.38;1.48;;;;;;;9.67;73.01;93888.97;5092919;28;20028;-78
2021/06/15 00:40:13;;;;;;;3.47;1.83;;;;;;;9.71;73.30;93889.94;5102213;28;20441;-78
2021/06/15 00:42:39;;;;;;;6.95;1.70;;;;;;;9.71;73.59;93892.59;5111429;28;20028;-78
2021/06/15 00:45:08;;;;;;;4.10;1.73;;;;;;;9.64;74.18;93892.25;5090698;28;20042;-78
2021/06/15 00:47:34;;;;;;;2.22;1.50;;;;;;;9.57;74.54;93899.91;5107429;28;20023;-78
2021/06/15 00:50:00;;;;;;;5.82;1.65;;;;;;;9.58;74.70;93904.09;5090427;28;20032;-77
2021/06/15 00:52:25;;;;;;;2.85;1.70;;;;;;;9.59;74.50;93903.03;5097368;28;20023;-78
2021/06/15 00:54:51;;;;;;;2.70;1.60;;;;;;;9.62;74.36;93899.75;5096244;28;20131;-77
2021/06/15 00:57:18;;;;;;;4.82;1.80;;;;;;;9.64;74.40;93916.19;5095886;28;20019;-77
2021/06/15 00:59:44;;;;;;;3.28;1.58;;;;;;;9.62;74.52;93916.50;5103790;28;20013;-77
2021/06/15 01:02:11;;;;;;;6.03;2.33;;;;;;;9.60;74.68;93908.03;5101598;28;20028;-78
2021/06/15 01:04:36;;;;;;;6.68;1.95;;;;;;;9.64;74.60;93921.50;5095700;28;20161;-78
2021/06/15 01:07:22;;;;;;;4.03;2.13;;;;;;;9.61;74.86;93914.16;5098380;28;20082;-78
2021/06/15 01:10:14;;;;;;;5.85;2.28;;;;;;;9.60;74.56;93904.59;5092000;27;20047;-78
2021/06/15 01:12:47;;;;;;;7.57;2.30;;;;;;;9.62;75.25;93916.50;5111337;28;20052;-78
2021/06/15 01:15:29;;;;;;;6.03;2.00;;;;;;;9.70;74.53;93912.31;5099985;28;20031;-77
2021/06/15 01:18:00;;;;;;;8.80;1.60;;;;;;;9.74;74.08;93910.59;5099865;28;20027;-77
2021/06/15 01:20:35;;;;;;;4.73;1.63;;;;;;;9.71;74.18;93915.75;5104273;28;20054;-77
2021/06/15 01:23:48;;;;;;;4.82;1.63;;;;;;;9.78;74.00;93911.56;5100589;28;20034;-77
2021/06/15 01:26:42;;;;;;;3.78;1.60;;;;;;;9.73;73.63;93917.03;5040324;28;20049;-78
2021/06/15 01:29:12;;;;;;;4.38;1.55;;;;;;;9.76;73.70;93908.44;5094326;28;20027;-78
2021/06/15 01:31:43;;;;;;;5.10;1.85;;;;;;;9.77;73.78;93902.03;5091112;28;20028;-79
2021/06/15 01:34:20;;;;;;;3.78;1.73;;;;;;;9.79;73.32;93899.84;5104290;28;20039;-79
2021/06/15 01:37:01;;;;;;;5.20;1.65;;;;;;;9.79;73.59;93891.84;5097520;28;20043;-79
2021/06/15 01:39:31;;;;;;;5.22;2.08;;;;;;;9.82;73.33;93895.78;5089951;28;20016;-79
2021/06/15 01:42:00;;;;;;;3.20;1.63;;;;;;;9.80;73.34;93893.41;5094500;28;20080;-76
2021/06/15 01:44:28;;;;;;;4.10;1.70;;;;;;;9.90;72.88;93891.59;5102200;28;20023;-76
2021/06/15 01:47:12;;;;;;;5.95;1.50;;;;;;;9.83;73.10;93886.69;5105216;28;20491;-76
2021/06/15 01:49:45;;;;;;;4.65;2.10;;;;;;;9.79;73.35;93883.88;5099821;28;20437;-76
2021/06/15 01:52:12;;;;;;;;;;;;;;;9.72;73.64;93883.50;5111683;28;20106;-76
2021/06/15 01:54:41;;;;;;;3.70;1.52;;;;;;;9.72;73.55;93877.41;5104426;28;19912;-76
2021/06/15 01:57:08;;;;;;;3.60;2.50;;;;;;;9.72;73.58;93878.19;5103482;28;20028;-76
2021/06/15 01:59:36;;;;;;;3.67;1.77;;;;;;;9.68;73.86;93877.22;5093588;28;20024;-76
2021/06/15 02:02:03;;;;;;;6.70;2.10;;;;;;;9.66;73.71;93881.31;5091695;28;20028;-76
2021/06/15 02:04:34;;;;;;;3.80;1.92;;;;;;;9.60;74.02;93875.31;5103837;28;20035;-76
2021/06/15 02:07:02;;;;;;;8.20;1.75;;;;;;;9.60;74.25;93870.78;5110897;27;20453;-76
2021/06/15 02:09:36;;;;;;;3.50;1.45;;;;;;;9.66;74.25;93879.41;5102401;28;20028;-76
2021/06/15 02:12:02;;;;;;;2.78;1.60;;;;;;;9.61;74.06;93872.34;5107793;28;20124;-76
2021/06/15 02:14:28;;;;;;;5.00;2.15;;;;;;;9.61;73.74;93864.38;5097942;28;20498;-76
2021/06/15 02:16:57;;;;;;;3.60;1.80;;;;;;;9.67;73.52;93864.22;5106614;28;20038;-76
2021/06/15 02:19:26;;;;;;;4.97;1.80;;;;;;;9.67;73.70;93859.72;5095015;28;20363;-76
2021/06/15 02:22:06;;;;;;;4.63;2.20;;;;;;;9.58;74.17;93856.22;5092077;28;20114;-76
2021/06/15 02:24:37;;;;;;;3.67;1.45;;;;;;;9.58;74.09;93864.19;5099542;28;20031;-76
2021/06/15 02:27:04;;;;;;;6.25;1.92;;;;;;;9.53;74.30;93859.81;5102130;28;20051;-76
2021/06/15 02:29:30;;;;;;;3.38;1.92;;;;;;;9.51;74.66;93859.31;5097308;28;20020;-76
2021/06/15 02:31:58;;;;;;;6.43;1.75;;;;;;;9.44;75.02;93856.28;5100266;28;20026;-76
2021/06/15 02:34:26;;;;;;;3.40;2.13;;;;;;;9.41;75.20;93852.38;5100495;28;20034;-78
2021/06/15 02:36:52;;;;;;;4.88;2.00;;;;;;;9.46;75.46;93858.66;5102100;28;20031;-77
2021/06/15 02:39:24;;;;;;;3.15;1.75;;;;;;;9.59;75.07;93865.78;5091025;28;20043;-76
2021/06/15 02:41:51;;;;;;;3.83;2.03;;;;;;;9.57;74.88;93863.41;5102844;28;20193;-76
2021/06/15 02:44:21;;;;;;;5.20;1.80;;;;;;;9.62;75.36;93862.50;5110421;28;20108;-76
2021/06/15 02:46:49;;;;;;;3.50;2.00;;;;;;;9.74;74.88;93864.59;5105744;28;20081;-76
2021/06/15 02:49:18;;;;;;;2.50;1.67;;;;;;;9.72;74.78;93854.25;5104414;28;20031;-76
2021/06/15 02:52:15;;;;;;;5.18;2.50;;;;;;;9.77;75.09;93869.28;5110177;28;20024;-76
2021/06/15 02:54:45;;;;;;;3.22;1.58;;;;;;;9.83;74.84;93874.19;5107095;28;20027;-77
2021/06/15 02:57:12;;;;;;;4.30;2.08;;;;;;;9.75;74.99;93877.59;5097203;28;20046;-77
2021/06/15 02:59:38;;;;;;;6.38;1.90;;;;;;;9.75;75.07;93880.25;5106935;28;20024;-77
2021/06/15 03:02:04;;;;;;;3.55;1.65;;;;;;;9.81;75.11;93886.19;5097334;28;20034;-76
2021/06/15 03:04:30;;;;;;;3.65;1.88;;;;;;;9.79;75.05;93883.06;5097099;28;20111;-77
2021/06/15 03:06:56;;;;;;;5.55;2.30;;;;;;;9.84;75.21;93878.41;5113766;27;20476;-77
2021/06/15 03:09:21;;;;;;;5.55;2.10;;;;;;;9.91;74.97;93880.63;5103914;28;20098;-77
2021/06/15 03:12:01;;;;;;;8.80;3.28;;;;;;;9.95;74.71;93886.09;5107783;28;20047;-82
2021/06/15 03:14:30;;;;;;;7.20;2.10;;;;;;;9.99;74.52;93892.38;5088351;28;20020;-82
2021/06/15 03:17:05;;;;;;;5.38;2.25;;;;;;;10.03;74.54;93907.47;5088080;28;20070;-82
2021/06/15 03:19:36;;;;;;;3.35;2.00;;;;;;;10.08;74.04;93924.41;5105881;28;20016;-83
2021/06/15 03:22:10;;;;;;;3.22;1.90;;;;;;;10.08;74.06;93929.72;5101983;28;20085;-83
2021/06/15 03:24:54;;;;;;;11.88;2.95;;;;;;;10.23;73.94;93931.94;5094141;28;20012;-83
2021/06/15 03:27:35;;;;;;;6.45;2.33;;;;;;;10.34;74.08;93943.13;5092437;28;20024;-82
2021/06/15 03:30:08;;;;;;;12.37;2.77;;;;;;;10.41;73.71;93946.94;5095114;28;20399;-82
2021/06/15 03:32:37;;;;;;;;;;;;;;;10.48;73.59;93951.78;5095477;28;20020;-82
2021/06/15 03:35:04;;;;;;;6.43;2.30;;;;;;;10.44;72.58;93961.50;5107548;28;19911;-83
2021/06/15 03:37:29;;;;;;;2.78;1.85;;;;;;;10.55;72.11;93956.69;5122568;27;20028;-83
2021/06/15 03:39:58;;;;;;;4.65;2.03;;;;;;;10.61;72.08;93968.78;5096381;28;20024;-82
2021/06/15 03:42:37;;;;;;;6.20;2.67;;;;;;;10.70;72.35;93960.78;5096579;28;20055;-83
2021/06/15 03:45:06;;;;;;;5.18;2.20;;;;;;;10.73;71.58;93952.19;5101354;28;20080;-82
2021/06/15 03:47:34;;;;;;;6.43;1.80;;;;;;;10.79;71.33;93948.28;5104161;28;20055;-82
2021/06/15 03:50:00;;;;;;;2.95;1.83;;;;;;;10.86;71.16;93937.91;5108907;28;20028;-82
2021/06/15 03:52:34;;;;;;;5.00;2.15;;;;;;;10.81;70.91;93938.88;5106676;28;20077;-75
2021/06/15 03:55:00;;;;;;;4.90;2.15;;;;;;;10.79;71.60;93945.59;5104091;28;20116;-77
2021/06/15 03:57:27;;;;;;;7.18;2.83;;;;;;;10.63;71.83;93929.28;5102417;28;20031;-76
2021/06/15 03:59:55;;;;;;;3.75;2.05;;;;;;;10.53;72.69;93933.00;5100291;28;20078;-76
2021/06/15 04:02:22;;;;;;;6.50;2.70;;;;;;;10.41;72.58;93935.50;5104136;28;20030;-77
2021/06/15 04:04:49;;;;;;;4.72;2.67;;;;;;;10.35;72.33;93947.38;5096180;28;20063;-77
2021/06/15 04:07:19;;;;;;;4.43;2.30;;;;;;;10.30;73.03;93939.53;5094217;28;20108;-76
2021/06/15 04:09:47;;;;;;;6.03;2.70;;;;;;;10.18;72.96;93950.75;5101309;28;20367;-76
2021/06/15 04:12:13;;;;;;;5.32;2.47;;;;;;;10.06;73.86;93958.53;5125697;27;20063;-76
2021/06/15 04:14:43;;;;;;;9.82;3.20;;;;;;;10.06;74.06;93955.88;5101687;28;20031;-75
2021/06/15 04:17:10;;;;;;;16.83;3.08;;;;;;;10.10;74.33;93962.94;5104124;28;20099;-76
2021/06/15 04:19:41;;;;;;;10.18;2.80;;;;;;;10.09;73.73;93969.34;5100101;28;20102;-75
2021/06/15 04:22:11;;;;;;;6.50;2.33;;;;;;;10.11;73.82;93967.16;5103758;28;20491;-75
2021/06/15 04:24:39;;;;;;;4.75;2.58;;;;;;;10.19;74.24;93963.75;5078964;28;20135;-76
2021/06/15 04:27:06;;;;;;;9.20;2.10;;;;;;;10.19;73.26;93966.41;5108954;28;20027;-76
2021/06/15 04:29:31;;;;;;;5.47;2.80;;;;;;;10.19;73.23;93966.41;5104694;28;20074;-76
2021/06/15 04:31:59;;;;;;;8.02;3.63;;;;;;;10.20;73.44;93965.31;5103315;28;20027;-76
2021/06/15 04:34:27;;;;;;;5.05;2.17;;;;;;;10.25;73.66;93965.16;5102953;28;20059;-76
2021/06/15 04:37:00;;;;;;;8.85;2.38;;;;;;;10.24;73.22;93966.28;5097811;28;20038;-76
2021/06/15 04:39:30;;;;;;;6.13;2.22;;;;;;;10.33;72.89;93965.56;5093994;28;20027;-76
2021/06/15 04:41:55;;;;;;;5.03;2.40;;;;;;;10.40;72.30;93966.69;5099599;28;20110;-76
2021/06/15 04:44:27;;;;;;;6.60;2.33;;;;;;;10.39;72.49;93964.31;5100683;28;20059;-76
2021/06/15 04:47:00;;;;;;;3.55;2.15;;;;;;;10.37;72.93;93961.19;5102791;28;20047;-76
2021/06/15 04:49:31;;;;;;;7.70;2.45;;;;;;;10.36;72.28;93971.06;5095111;28;20024;-76
2021/06/15 04:52:00;;;;;;;4.63;1.97;;;;;;;10.44;73.31;93969.50;5098027;28;20027;-75
2021/06/15 04:54:32;;;;;;;3.55;1.80;;;;;;;10.49;72.58;93969.38;5092852;28;20035;-76
2021/06/15 04:56:59;;;;;;;5.47;2.20;;;;;;;10.56;71.79;93959.06;5103972;28;20114;-75
2021/06/15 04:59:27;;;;;;;5.10;2.13;;;;;;;10.62;71.30;93957.81;5104411;28;20084;-76
2021/06/15 05:01:52;;;;;;;3.30;2.08;;;;;;;10.58;71.41;93961.38;5105808;28;20039;-75
2021/06/15 05:04:19;;;;;;;6.78;2.22;;;;;;;10.64;72.08;93970.81;5124847;27;20147;-77
2021/06/15 05:06:45;;;;;;;5.55;2.90;;;;;;;10.70;71.75;93963.47;5098225;28;20038;-77
2021/06/15 05:09:14;;;;;;;7.13;2.53;;;;;;;10.83;71.27;93973.22;5099466;28;20028;-77
2021/06/15 05:11:41;;;;;;;10.18;2.15;;;;;;;10.82;71.81;93972.41;5095955;28;20398;-77
2021/06/15 05:14:09;;;;;;;6.40;2.85;;;;;;;10.90;72.22;93978.88;5099340;28;20484;-77
2021/06/15 05:16:36;;;;;;;4.55;2.53;;;;;;;10.81;70.02;93968.19;5104494;28;20063;-78
2021/06/15 05:19:02;;;;;;;8.32;3.78;;;;;;;10.85;71.01;93979.03;5102345;28;20015;-75
2021/06/15 05:21:34;;;;;;;12.38;2.95;;;;;;;10.75;70.77;93976.66;5104054;28;20145;-75
2021/06/15 05:24:05;;;;;;;9.80;2.60;;;;;;;10.79;70.92;93974.94;5100461;28;20088;-75
2021/06/15 05:26:32;;;;;;;4.68;2.70;;;;;;;10.72;72.10;93987.94;5098775;28;20028;-75
2021/06/15 05:28:57;;;;;;;8.57;3.30;;;;;;;10.70;72.13;93987.44;5102828;28;20070;-75
2021/06/15 05:31:23;;;;;;;8.40;2.55;;;;;;;10.71;72.19;94002.38;5101806;28;20032;-75
2021/06/15 05:33:48;;;;;;;8.50;3.05;;;;;;;10.77;72.36;93991.25;5108518;28;20038;-77
2021/06/15 05:36:14;;;;;;;6.35;3.20;;;;;;;10.86;72.32;93998.47;5108185;28;20016;-78
2021/06/15 05:38:41;;;;;;;15.95;3.63;;;;;;;10.97;72.14;94008.53;5094045;28;20074;-78
2021/06/15 05:41:06;;;;;;;9.55;4.25;;;;;;;10.90;71.67;94008.19;5110496;28;20483;-78
2021/06/15 05:43:31;;;;;;;9.65;3.05;;;;;;;10.86;71.37;94012.56;5105083;28;20028;-78
2021/06/15 05:45:57;;;;;;;6.70;2.80;;;;;;;10.93;70.79;94012.91;5108557;28;20031;-76
2021/06/15 05:48:22;;;;;;;7.07;2.85;;;;;;;10.80;71.06;94009.28;5097252;28;20036;-76
2021/06/15 05:50:49;;;;;;;5.70;3.42;;;;;;;10.85;71.98;94005.69;5101996;28;20054;-77
2021/06/15 05:53:16;;;;;;;9.65;3.45;;;;;;;10.81;71.08;94029.50;5103960;28;21721;-77
2021/06/15 05:55:41;;;;;;;11.63;3.28;;;;;;;10.85;71.79;94024.34;5108577;28;20496;-77
2021/06/15 05:58:06;;;;;;;7.55;3.40;;;;;;;10.81;71.57;94018.84;5108971;28;20033;-78
2021/06/15 06:00:32;;;;;;;12.43;3.50;;;;;;;10.91;72.38;94007.13;5104361;28;20092;-77
2021/06/15 06:02:58;;;;;;;6.95;3.15;;;;;;;10.94;71.30;94024.38;5094732;28;20611;-78
2021/06/15 06:08:07;;;;;;;7.47;3.15;;;;;;;11.00;70.69;94015.91;5107519;28;20188;-77
2021/06/15 06:10:34;;;;;;;15.77;5.28;;;;;;;10.91;71.13;94001.78;5105019;28;20056;-76
2021/06/15 06:13:00;;;;;;;16.65;4.13;;;;;;;10.93;72.18;94001.44;5105285;28;20114;-77
2021/06/15 06:15:25;;;;;;;6.05;3.95;;;;;;;10.94;71.53;94003.81;5101419;28;20024;-75
2021/06/15 06:17:51;;;;;;;5.30;3.50;;;;;;;11.07;72.06;93998.66;5104012;28;20031;-77
2021/06/15 06:20:18;;;;;;;6.95;3.33;;;;;;;11.07;71.12;93998.66;5097222;28;20532;-80
2021/06/15 06:22:44;;;;;;;5.28;3.10;;;;;;;11.19;71.86;94001.50;5095465;28;20076;-74
2021/06/15 06:25:13;;;;;;;10.38;3.28;;;;;;;11.28;71.76;94004.97;5096285;28;20051;-80
2021/06/15 06:27:39;;;;;;;6.50;3.85;;;;;;;11.28;71.05;94002.28;5102221;28;20031;-76
2021/06/15 06:30:07;;;;;;;14.73;3.80;;;;;;;11.45;72.20;94004.94;5098334;28;20055;-74
2021/06/15 06:32:33;;;;;;;9.75;3.70;;;;;;;11.55;71.43;93998.50;5099514;28;20030;-77
2021/06/15 06:35:01;;;;;;;8.85;3.70;;;;;;;11.70;70.51;93996.44;5093104;28;20717;-75
2021/06/15 06:37:27;;;;;;;10.75;4.18;;;;;;;11.88;71.32;93994.53;5098772;28;20026;-76
2021/06/15 06:39:52;;;;;;;7.10;3.55;;;;;;;12.04;70.98;93993.75;5098126;28;20063;-75
2021/06/15 06:42:19;;;;;;;10.80;3.25;;;;;;;12.03;68.28;93997.53;5106926;28;20030;-76
2021/06/15 06:44:44;;;;;;;9.25;3.70;;;;;;;12.15;69.39;93998.75;5109131;28;20016;-77
2021/06/15 06:47:09;;;;;;;6.53;3.28;;;;;;;12.24;69.35;94005.63;5100639;28;20023;-80
2021/06/15 06:49:35;;;;;;;8.93;2.60;;;;;;;12.38;69.55;94004.66;5092791;28;20020;-76
2021/06/15 06:52:00;;;;;;;4.25;3.05;;;;;;;12.51;69.37;94000.19;5095321;28;20510;-74
2021/06/15 06:54:26;;;;;;;5.53;2.47;;;;;;;12.59;67.27;93994.03;5098299;28;20110;-75
2021/06/15 06:56:51;;;;;;;4.13;2.75;;;;;;;12.49;65.25;93986.38;5099620;28;20023;-74
2021/06/15 06:59:16;;;;;;;8.25;2.60;;;;;;;12.55;66.34;93991.22;5093916;28;20020;-74
2021/06/15 07:01:42;;;;;;;3.33;2.30;;;;;;;12.51;65.16;93995.63;5100132;28;20028;-75
2021/06/15 07:04:07;;;;;;;7.72;2.65;;;;;;;12.52;66.00;93997.22;5094304;28;20024;-73
2021/06/15 07:06:32;;;;;;;10.13;3.00;;;;;;;12.55;66.88;93990.44;5113943;28;20070;-73
2021/06/15 07:08:58;;;;;;;3.38;2.42;;;;;;;12.68;64.05;93977.94;5097474;28;20020;-73
2021/06/15 07:11:23;;;;;;;15.45;2.42;;;;;;;12.80;63.95;93988.72;5091913;28;20020;-75
2021/06/15 07:13:49;;;;;;;3.80;2.20;;;;;;;12.81;64.44;93976.94;5099695;28;20050;-72
2021/06/15 07:16:14;;;;;;;6.60;2.58;;;;;;;12.76;63.67;93975.22;5113263;28;20031;-74
2021/06/15 07:18:40;;;;;;;3.83;2.55;;;;;;;12.72;63.24;93985.00;5109088;28;20031;-74
2021/06/15 07:21:07;;;;;;;6.05;2.80;;;;;;;12.73;64.62;93980.44;5093385;28;20491;-76
2021/06/15 07:23:33;;;;;;;8.98;2.58;;;;;;;12.86;64.92;93974.06;5093464;28;20108;-76
2021/06/15 07:25:59;;;;;;;6.53;2.60;;;;;;;12.92;65.01;93970.06;5094935;28;20105;-79
2021/06/15 07:28:24;;;;;;;8.35;2.65;;;;;;;13.00;64.80;93965.78;5110407;28;20024;-81
2021/06/15 07:30:50;;;;;;;6.15;2.33;;;;;;;13.07;64.61;93971.41;5121163;27;20046;-77
2021/06/15 07:33:16;;;;;;;12.60;2.65;;;;;;;13.02;62.79;93972.38;5103488;28;20035;-76
2021/06/15 07:35:41;;;;;;;9.13;2.67;;;;;;;13.02;62.20;93977.72;5096676;28;20081;-75
2021/06/15 07:38:07;;;;;;;3.83;2.83;;;;;;;13.10;62.73;93965.41;5101786;28;20035;-75
2021/06/15 07:40:32;;;;;;;9.80;2.90;;;;;;;13.16;63.81;93969.44;5103108;28;20130;-76
2021/06/15 07:42:59;;;;;;;8.38;2.67;;;;;;;13.19;62.79;93968.03;5107506;28;20114;-75
2021/06/15 07:45:27;;;;;;;4.70;2.85;;;;;;;13.38;63.05;93960.34;5098289;28;20036;-76
2021/06/15 07:47:52;;;;;;;4.35;2.70;;;;;;;13.51;62.39;93971.09;5111460;28;20065;-73
2021/06/15 07:50:18;;;;;;;5.38;2.78;;;;;;;13.65;63.50;93960.88;5111854;28;20263;-75
2021/06/15 07:52:45;;;;;;;10.00;4.15;;;;;;;13.83;62.13;93945.44;5109247;28;20027;-72
2021/06/15 07:55:13;;;;;;;3.30;2.13;;;;;;;13.99;60.10;93949.03;5093075;28;20517;-75
2021/06/15 07:57:39;;;;;;;9.52;2.47;;;;;;;14.20;62.34;93940.91;5101048;28;20050;-75
2021/06/15 08:00:07;;;;;;;3.92;2.45;;;;;;;14.43;60.54;93940.47;5098327;28;20020;-75
2021/06/15 08:02:32;;;;;;;7.05;2.65;;;;;;;14.60;61.66;93958.31;5101162;28;20024;-75
2021/06/15 08:04:57;;;;;;;4.22;2.00;;;;;;;14.75;58.41;93946.88;5102051;28;20042;-76
2021/06/15 08:07:23;;;;;;;9.77;2.22;;;;;;;14.80;59.05;93962.00;5108725;28;20027;-75
2021/06/15 08:09:48;;;;;;;11.75;2.13;;;;;;;14.63;58.24;93952.25;5095652;28;20034;-74
2021/06/15 08:12:16;;;;;;;4.18;2.10;;;;;;;14.73;57.77;93937.63;5109301;28;20104;-76
2021/06/15 08:14:41;;;;;;;3.10;2.00;;;;;;;14.80;58.29;93948.56;5108633;28;20159;-74
2021/06/15 08:17:07;;;;;;;4.15;2.10;;;;;;;14.88;56.72;93936.94;5110033;28;20032;-73
2021/06/15 08:19:32;;;;;;;6.25;1.98;;;;;;;14.79;57.57;93944.31;5094139;28;20038;-79
2021/06/15 08:21:58;;;;;;;5.13;2.30;;;;;;;14.90;57.78;93937.38;5108080;28;20545;-78
2021/06/15 08:24:23;;;;;;;9.18;2.95;;;;;;;14.98;57.80;93927.63;5093999;28;20475;-77
2021/06/15 08:26:48;;;;;;;5.68;2.42;;;;;;;15.05;57.40;93933.22;5092328;28;20028;-77
2021/06/15 08:29:14;;;;;;;5.25;2.50;;;;;;;15.12;57.88;93929.94;5110446;28;20107;-76
2021/06/15 08:31:39;;;;;;;5.80;2.17;;;;;;;15.04;57.28;93932.44;5104203;28;20050;-76
2021/06/15 08:34:05;;;;;;;7.13;2.67;;;;;;;15.18;58.13;93931.28;5108453;28;20028;-76
2021/06/15 08:36:30;;;;;;;16.05;2.53;;;;;;;15.39;58.91;93939.16;5097206;28;20020;-75
2021/06/15 08:38:56;;;;;;;6.53;2.60;;;;;;;15.55;56.40;93925.75;5094578;28;20024;-76
2021/06/15 08:41:21;;;;;;;6.35;2.45;;;;;;;15.64;54.88;93934.47;5096295;27;20039;-76
2021/06/15 08:43:48;;;;;;;4.25;2.55;;;;;;;15.62;56.07;93937.50;5101067;28;20046;-76
2021/06/15 08:46:15;;;;;;;5.20;1.85;;;;;;;15.73;55.76;93939.72;5100606;28;20088;-79
2021/06/15 08:48:40;;;;;;;3.08;1.77;;;;;;;15.91;56.24;93937.50;5098603;28;20114;-77
2021/06/15 08:51:06;;;;;;;5.97;1.95;;;;;;;15.97;54.36;93933.44;5110514;28;20157;-84
2021/06/15 08:53:33;;;;;;;8.75;2.50;;;;;;;15.92;55.32;93931.00;5107448;28;20057;-81
2021/06/15 08:56:06;;;;;;;6.25;1.77;;;;;;;16.04;53.64;93939.78;5097777;28;20218;-76
2021/06/15 08:59:13;;;;;;;5.03;1.90;;;;;;;15.88;53.60;93930.91;5109277;28;20494;-81
2021/06/15 09:01:39;;;;;;;6.60;2.03;;;;;;;16.16;53.61;93935.44;5090450;28;20031;-81
2021/06/15 09:04:04;;;;;;;7.55;3.00;;;;;;;16.31;53.09;93931.22;5103390;28;20046;-79
2021/06/15 09:06:31;;;;;;;22.55;2.78;;;;;;;16.15;52.16;93931.22;5107544;28;20112;-70
2021/06/15 09:09:01;;;;;;;5.63;1.70;;;;;;;16.35;50.63;93932.84;5111377;28;20567;-71
2021/06/15 09:11:46;;;;;;;8.85;1.85;;;;;;;16.46;51.88;93925.03;5110933;28;20030;-72
2021/06/15 09:14:12;;;;;;;2.80;1.95;;;;;;;16.52;52.52;93920.19;5111430;28;20088;-71
2021/06/15 09:16:37;;;;;;;10.73;2.08;;;;;;;16.63;49.70;93916.63;5111452;28;20019;-72
2021/06/15 09:19:23;;;;;;;2.00;1.02;;;;;;;16.46;49.04;93922.34;5110317;28;20457;-72
2021/06/15 09:21:50;;;;;;;4.22;1.40;;;;;;;16.48;51.06;93925.47;5111566;28;20026;-73
2021/06/15 09:24:24;;;;;;;8.68;2.03;;;;;;;16.64;50.25;93915.47;5110220;28;20027;-71
2021/06/15 09:26:55;;;;;;;2.55;1.25;;;;;;;16.77;50.20;93909.97;5097375;28;20024;-70
2021/06/15 09:29:46;;;;;;;8.07;1.30;;;;;;;16.74;48.51;93916.06;5103468;28;21103;-69
2021/06/15 09:32:16;;;;;;;3.47;1.38;;;;;;;16.71;47.97;93904.09;5097617;28;20464;-70
2021/06/15 09:35:05;;;;;;;2.88;1.33;;;;;;;16.89;49.87;93899.13;5106437;28;20043;-70
2021/06/15 09:37:34;;;;;;;5.55;2.50;;;;;;;17.01;48.64;93893.63;5100300;28;20107;-70
2021/06/15 09:40:03;;;;;;;5.60;1.60;;;;;;;17.12;48.85;93899.25;5106089;28;20475;-70
2021/06/15 09:42:28;;;;;;;2.75;1.52;;;;;;;17.32;47.20;93901.94;5100125;28;20035;-70
2021/06/15 09:44:54;;;;;;;2.85;1.70;;;;;;;17.37;48.06;93890.88;5101132;28;20035;-70
2021/06/15 09:47:24;;;;;;;3.97;1.67;;;;;;;17.40;49.66;93893.66;5100936;28;20152;-69
2021/06/15 09:49:50;;;;;;;2.83;1.42;;;;;;;17.42;46.77;93890.59;5099917;28;20028;-70
2021/06/15 09:52:20;;;;;;;1.75;0.98;;;;;;;17.51;46.25;93877.69;5100132;28;20031;-68
2021/06/15 09:55:00;;;;;;;3.15;1.17;;;;;;;17.65;46.88;93890.66;5097564;28;20034;-69
2021/06/15 09:57:29;;;;;;;5.88;2.50;;;;;;;17.57;45.74;93897.06;5093916;28;20068;-70
2021/06/15 10:00:10;;;;;;;3.10;1.30;;;;;;;17.35;46.59;93891.22;5097104;28;20057;-69
2021/06/15 10:02:56;;;;;;;4.15;1.77;;;;;;;17.33;48.21;93884.66;5101049;28;20491;-71
2021/06/15 10:05:45;;;;;;;3.22;1.45;;;;;;;17.43;46.98;93887.53;5086580;28;20047;-71
2021/06/15 10:08:13;;;;;;;5.47;1.85;;;;;;;17.53;47.73;93890.81;5099627;28;20024;-70
2021/06/15 10:10:40;;;;;;;2.88;1.55;;;;;;;17.44;47.97;93883.72;5108011;28;20110;-71
2021/06/15 10:13:07;;;;;;;7.93;1.50;;;;;;;17.44;48.74;93883.72;5092234;28;20057;-71
2021/06/15 10:15:35;;;;;;;4.38;1.35;;;;;;;17.38;46.81;93885.16;5099128;28;20030;-71
2021/06/15 10:18:01;;;;;;;3.90;1.58;;;;;;;17.31;47.46;93898.47;5091312;28;20036;-71
2021/06/15 10:20:32;;;;;;;6.47;1.45;;;;;;;17.30;47.76;93886.16;5090657;28;20113;-75
2021/06/15 10:22:59;;;;;;;2.45;1.40;;;;;;;17.42;48.06;93902.16;5089736;28;20020;-75
2021/06/15 10:25:27;;;;;;;2.28;1.30;;;;;;;17.41;45.98;93879.03;5095851;28;20204;-75
2021/06/15 10:27:56;;;;;;;2.03;1.20;;;;;;;17.48;46.68;93894.56;5094733;28;20483;-75
2021/06/15 10:30:34;;;;;;;4.20;1.27;;;;;;;17.52;46.13;93883.84;5088319;28;20054;-74
2021/06/15 10:33:02;;;;;;;5.75;1.33;;;;;;;17.53;45.27;93886.19;5098291;28;20073;-76
2021/06/15 10:35:53;;;;;;;2.22;1.30;;;;;;;17.72;45.79;93877.28;5114184;27;20172;-76
2021/06/15 10:38:24;;;;;;;6.70;1.20;;;;;;;17.90;45.43;93864.16;5089262;28;20051;-74
2021/06/15 10:40:52;;;;;;;3.90;1.00;;;;;;;17.93;44.53;93858.06;5093718;28;20028;-76
2021/06/15 10:43:28;;;;;;;4.32;1.10;;;;;;;18.08;45.17;93864.47;5125323;27;20095;-75
2021/06/15 10:46:04;;;;;;;1.85;1.00;;;;;;;18.18;44.30;93865.78;5089768;28;20042;-76
2021/06/15 10:48:40;;;;;;;2.72;1.30;;;;;;;18.21;44.28;93862.38;5120321;28;20414;-77
2021/06/15 10:51:22;;;;;;;6.18;0.90;;;;;;;18.29;43.71;93868.66;5098676;28;20031;-75
2021/06/15 10:53:48;;;;;;;4.55;1.25;;;;;;;18.32;43.07;93870.63;5102372;28;20495;-75
2021/06/15 10:56:17;;;;;;;2.80;1.05;;;;;;;18.42;41.98;93857.31;5109521;28;20027;-76
2021/06/15 10:58:57;;;;;;;3.72;0.88;;;;;;;18.35;41.14;93853.72;5102467;28;20103;-76
2021/06/15 11:01:31;;;;;;;4.70;1.00;;;;;;;18.51;43.99;93848.19;5100231;28;20036;-74
2021/06/15 11:04:17;;;;;;;2.50;1.10;;;;;;;18.40;42.10;93848.03;5100273;28;20096;-74
2021/06/15 11:06:45;;;;;;;6.07;1.52;;;;;;;18.20;43.67;93831.91;5100088;28;20144;-75
2021/06/15 11:09:16;;;;;;;4.13;2.08;;;;;;;18.17;43.82;93831.84;5102058;28;20440;-75
2021/06/15 11:12:04;;;;;;;3.38;1.27;;;;;;;18.13;43.69;93842.56;5091077;28;20016;-75
2021/06/15 11:14:30;;;;;;;9.00;1.20;;;;;;;17.99;43.68;93837.75;5095321;28;20046;-75
2021/06/15 11:16:59;;;;;;;10.07;1.42;;;;;;;17.87;44.28;93834.44;5107441;28;20027;-75
2021/06/15 11:19:25;;;;;;;4.80;1.33;;;;;;;17.82;45.48;93825.47;5099899;28;20028;-75
2021/06/15 11:21:54;;;;;;;3.42;0.80;;;;;;;17.77;44.62;93839.28;5094738;28;20028;-70
2021/06/15 11:24:49;;;;;;;2.40;1.20;;;;;;;17.64;44.63;93824.41;5104720;28;20410;-69
2021/06/15 11:27:27;;;;;;;2.40;1.35;;;;;;;17.64;46.75;93827.88;5093471;28;20016;-70
2021/06/15 11:30:13;;;;;;;4.00;1.60;;;;;;;17.60;45.61;93832.41;5108953;28;20019;-69
2021/06/15 11:33:05;;;;;;;3.35;1.50;;;;;;;17.78;46.63;93823.88;5109554;28;20035;-70
2021/06/15 11:35:39;;;;;;;7.32;1.23;;;;;;;17.75;46.10;93833.47;5111104;28;20161;-70
2021/06/15 11:38:05;;;;;;;3.78;1.20;;;;;;;17.54;44.39;93835.78;5096816;28;20039;-71
2021/06/15 11:40:36;;;;;;;6.93;1.27;;;;;;;17.61;46.32;93822.44;5106344;28;20036;-69
2021/06/15 11:43:07;;;;;;;10.35;1.00;;;;;;;17.78;46.42;93830.03;5107718;28;20024;-70
2021/06/15 11:45:35;;;;;;;3.75;1.20;;;;;;;17.72;46.01;93828.78;5106503;28;20510;-70
2021/06/15 11:48:31;;;;;;;2.67;1.27;;;;;;;17.67;46.43;93826.41;5098869;28;20123;-73